首页
METAR-TAF:

METAR-TAF

机场 :

奈洛比, 肯尼亚

纬度: 01-19S, 经度: 036-49E, 海拔: 1683米

当前天气观测

该预报发布于1小时和19分钟前的13:00 UTC
风速10节,风向东转东北
温度 24°C
湿度 61%
气压 1018 hPa
能见度10公里或以上
多云层高于2600英尺

METAR: HKNW 291300Z 06010KT 9999 BKN026 24/16 Q1018

时间: 17:19 (14:19 UTC)

预报

该预报发布于3小时和19分钟前的11:00 UTC
预报有效从29日的 12点(UTC)到 30日的 12点(UTC)
风速10节,风向东转东北
能见度10公里或以上
多云层高于2400英尺
短暂存在
从 29日的 12点(UTC)到 29日的 18点(UTC)
少量云层高于2200英尺, 积雨云.
多云层高于2300英尺
小阵雨
成为
从 29日的 19点(UTC)到 29日的 22点(UTC)
风速5节,风向多变
散云层高于500英尺
多云层高于1800英尺
多云层高于8000英尺
小雨
成为
从 30日的 08点(UTC)到 30日的 11点(UTC)
风速10节,风向
多云层高于2400英尺

TAF: HKNW 291100Z 2912/3012 06010KT 9999 BKN024 TEMPO 2912/2918 -SHRA FEW022CB BKN023 BECMG 2919/2922 VRB05KT -RA SCT005 BKN018 BKN080 BECMG 3008/3011 08010KT NSW BKN024

超过4000个机场的气象观测和天气预报(METAR&TAF报告)。

可查询的气象台以黄色和红色小点在地图上表示。

将鼠标移到小点上方,可查看气象台名称。

然后点击查看天气观测和预报。

如需切换地图:点击带黑十字的绿色按钮放大地图;点击带横线的绿色按钮缩小地图;或者点击绿色箭头查看邻近地区的地图。


METAR-TAF: